createdAt,value
2019-02-28T00:01:36.697Z,4.67
2019-02-28T00:04:04.875Z,5.30
2019-02-28T00:06:32.957Z,5.20
2019-02-28T00:09:01.171Z,5.13
2019-02-28T00:11:29.229Z,5.60
2019-02-28T00:13:57.323Z,5.73
2019-02-28T00:16:25.404Z,5.47
2019-02-28T00:18:53.572Z,5.47
2019-02-28T00:21:21.655Z,5.67
2019-02-28T00:23:49.753Z,5.57
2019-02-28T00:26:17.828Z,6.00
2019-02-28T00:28:45.938Z,6.30
2019-02-28T00:31:15.278Z,5.83
2019-02-28T00:33:43.713Z,7.60
2019-02-28T00:36:11.818Z,6.63
2019-02-28T00:38:39.916Z,6.80
2019-02-28T00:41:09.377Z,6.07
2019-02-28T00:43:39.231Z,6.63
2019-02-28T00:46:10.004Z,7.00
2019-02-28T00:48:37.115Z,6.77
2019-02-28T00:51:05.191Z,6.40
2019-02-28T00:53:33.263Z,5.73
2019-02-28T00:56:01.355Z,6.40
2019-02-28T00:58:29.611Z,5.57
2019-02-28T01:00:57.812Z,5.70
2019-02-28T01:03:27.311Z,5.40
2019-02-28T01:05:55.661Z,5.97
2019-02-28T01:08:23.734Z,5.93
2019-02-28T01:10:51.852Z,5.50
2019-02-28T01:13:19.923Z,5.90
2019-02-28T01:15:48.017Z,5.93
2019-02-28T01:18:16.095Z,6.37
2019-02-28T01:20:44.175Z,5.93
2019-02-28T01:23:12.243Z,5.67
2019-02-28T01:25:40.926Z,5.47
2019-02-28T01:28:09.190Z,5.73
2019-02-28T01:30:40.551Z,5.40
2019-02-28T01:33:07.089Z,5.97
2019-02-28T01:35:37.546Z,5.93
2019-02-28T01:38:05.013Z,5.67
2019-02-28T01:40:35.146Z,6.03
2019-02-28T01:43:03.159Z,5.43
2019-02-28T01:45:31.228Z,6.13
2019-02-28T01:47:59.307Z,5.33
2019-02-28T01:50:29.703Z,5.60
2019-02-28T01:52:57.201Z,5.60
2019-02-28T01:55:25.264Z,5.27
2019-02-28T01:57:53.352Z,5.17
2019-02-28T02:00:23.815Z,5.80
2019-02-28T02:02:51.219Z,5.50
2019-02-28T02:05:19.376Z,5.13
2019-02-28T02:07:47.466Z,5.90
2019-02-28T02:10:21.724Z,6.50
2019-02-28T02:12:50.572Z,6.20
2019-02-28T02:15:18.647Z,6.87
2019-02-28T02:17:46.730Z,7.30
2019-02-28T02:20:15.469Z,7.07
2019-02-28T02:22:44.598Z,7.90
2019-02-28T02:25:13.460Z,8.07
2019-02-28T02:27:41.557Z,8.37
2019-02-28T02:30:15.774Z,8.80
2019-02-28T02:32:43.817Z,8.80
2019-02-28T02:35:11.906Z,8.90
2019-02-28T02:37:39.991Z,8.87
2019-02-28T02:40:09.231Z,8.73
2019-02-28T02:42:37.326Z,8.93
2019-02-28T02:45:06.776Z,8.20
2019-02-28T02:47:34.929Z,8.93
2019-02-28T02:50:03.269Z,8.73
2019-02-28T02:52:31.340Z,8.93
2019-02-28T02:54:59.424Z,8.77
2019-02-28T02:57:27.554Z,9.70
2019-02-28T02:59:55.618Z,9.33
2019-02-28T03:02:23.706Z,9.90
2019-02-28T03:04:57.976Z,9.37
2019-02-28T03:07:24.649Z,10.07
2019-02-28T03:09:51.399Z,8.50
2019-02-28T03:12:19.548Z,8.33
2019-02-28T03:14:48.818Z,8.73
2019-02-28T03:17:17.427Z,6.93
2019-02-28T03:19:45.498Z,7.00
2019-02-28T03:22:13.587Z,6.50
2019-02-28T03:24:41.664Z,7.43
2019-02-28T03:27:09.772Z,8.20
2019-02-28T03:29:43.347Z,9.10
2019-02-28T03:32:07.669Z,9.90
2019-02-28T03:34:35.856Z,9.50
2019-02-28T03:37:04.047Z,9.10
2019-02-28T03:39:32.148Z,8.90
2019-02-28T03:42:00.227Z,9.37
2019-02-28T03:44:28.309Z,10.07
2019-02-28T03:46:56.403Z,10.83
2019-02-28T03:49:24.478Z,10.87
2019-02-28T03:51:52.546Z,10.63
2019-02-28T03:54:20.632Z,11.93
2019-02-28T03:56:52.790Z,10.87
2019-02-28T03:59:18.832Z,10.87
2019-02-28T04:01:48.196Z,10.67
2019-02-28T04:04:16.285Z,11.47
2019-02-28T04:06:44.392Z,10.57
2019-02-28T04:09:12.482Z,10.20
2019-02-28T04:11:40.622Z,11.10
2019-02-28T04:14:08.725Z,11.33
2019-02-28T04:16:36.803Z,11.97
2019-02-28T04:19:04.876Z,11.33
2019-02-28T04:21:32.986Z,11.73
2019-02-28T04:24:01.065Z,11.43
2019-02-28T04:26:30.037Z,12.03
2019-02-28T04:28:59.109Z,12.17
2019-02-28T04:31:27.191Z,12.47
2019-02-28T04:33:55.282Z,12.13
2019-02-28T04:36:23.372Z,11.47
2019-02-28T04:38:52.430Z,12.77
2019-02-28T04:41:20.631Z,11.73
2019-02-28T04:43:48.693Z,13.03
2019-02-28T04:46:16.810Z,12.23
2019-02-28T04:48:45.754Z,12.00
2019-02-28T04:51:14.710Z,12.47
2019-02-28T04:53:42.781Z,12.33
2019-02-28T04:56:11.418Z,12.90
2019-02-28T04:58:40.446Z,11.83
2019-02-28T05:01:09.119Z,12.13
2019-02-28T05:03:38.344Z,11.43
2019-02-28T05:06:06.435Z,12.33
2019-02-28T05:08:38.620Z,12.43
2019-02-28T05:11:04.330Z,12.20
2019-02-28T05:13:32.420Z,11.90
2019-02-28T05:16:00.529Z,12.07
2019-02-28T05:18:28.601Z,12.77
2019-02-28T05:20:56.723Z,12.70
2019-02-28T05:23:24.809Z,12.20
2019-02-28T05:25:52.899Z,12.80
2019-02-28T05:28:20.994Z,11.97
2019-02-28T05:30:50.244Z,12.13
2019-02-28T05:33:18.895Z,12.23
2019-02-28T05:35:46.980Z,12.67
2019-02-28T05:38:15.084Z,13.10
2019-02-28T05:40:43.185Z,12.77
2019-02-28T05:43:11.268Z,13.40
2019-02-28T05:45:39.357Z,12.97
2019-02-28T05:48:07.424Z,12.77
2019-02-28T05:50:35.525Z,13.93
2019-02-28T05:53:06.279Z,13.07
2019-02-28T05:55:33.408Z,12.90
2019-02-28T05:58:01.511Z,13.50
2019-02-28T06:00:29.596Z,14.23
2019-02-28T06:02:58.037Z,13.27
2019-02-28T06:05:27.143Z,13.37
2019-02-28T06:07:55.243Z,14.27
2019-02-28T06:10:24.723Z,12.67
2019-02-28T06:12:53.015Z,12.93
2019-02-28T06:15:21.086Z,13.30
2019-02-28T06:17:49.178Z,14.20
2019-02-28T06:20:18.075Z,13.27
2019-02-28T06:22:46.234Z,13.97
2019-02-28T06:25:22.090Z,14.40
2019-02-28T06:27:49.056Z,14.73
2019-02-28T06:30:14.726Z,14.43
2019-02-28T06:32:42.819Z,14.87
2019-02-28T06:35:16.155Z,14.80
2019-02-28T06:37:40.733Z,14.43
2019-02-28T06:40:10.380Z,15.63
2019-02-28T06:42:38.498Z,14.73
2019-02-28T06:45:08.175Z,14.10
2019-02-28T06:47:36.360Z,14.77
2019-02-28T06:50:06.194Z,13.90
2019-02-28T06:52:34.347Z,14.73
2019-02-28T06:55:02.878Z,15.07
2019-02-28T06:57:32.977Z,14.70
2019-02-28T07:00:00.864Z,14.47
2019-02-28T07:02:31.425Z,14.63
2019-02-28T07:04:58.941Z,14.47
2019-02-28T07:07:27.070Z,14.27
2019-02-28T07:09:55.196Z,14.80
2019-02-28T07:12:26.500Z,14.13
2019-02-28T07:14:53.161Z,13.87
2019-02-28T07:17:21.287Z,13.97
2019-02-28T07:19:49.397Z,14.47
2019-02-28T07:22:19.684Z,14.20
2019-02-28T07:24:47.337Z,14.60
2019-02-28T07:27:15.488Z,14.83
2019-02-28T07:29:43.627Z,14.30
2019-02-28T07:32:11.749Z,14.50
2019-02-28T07:34:39.872Z,14.33
2019-02-28T07:37:07.989Z,14.67
2019-02-28T07:39:36.537Z,14.97
2019-02-28T07:42:06.004Z,13.57
2019-02-28T07:44:34.125Z,14.80
2019-02-28T07:47:02.249Z,14.67
2019-02-28T07:49:35.831Z,13.70
2019-02-28T07:52:00.216Z,13.70
2019-02-28T07:54:28.338Z,13.90
2019-02-28T07:56:56.450Z,14.73
2019-02-28T07:59:24.557Z,14.63
2019-02-28T08:01:52.664Z,14.27
2019-02-28T08:04:20.748Z,14.73
2019-02-28T08:06:48.906Z,14.33
2019-02-28T08:09:18.536Z,14.77
2019-02-28T08:11:46.655Z,16.00
2019-02-28T08:14:14.774Z,16.67
2019-02-28T08:16:42.900Z,15.40
2019-02-28T08:19:11.027Z,15.53
2019-02-28T08:21:43.959Z,15.70
2019-02-28T08:24:09.009Z,16.00
2019-02-28T08:26:37.133Z,14.50
2019-02-28T08:29:07.967Z,16.43
2019-02-28T08:31:35.115Z,14.43
2019-02-28T08:34:03.239Z,16.40
2019-02-28T08:36:31.378Z,14.93
2019-02-28T08:38:59.485Z,15.20
2019-02-28T08:41:27.588Z,16.70
2019-02-28T08:43:55.809Z,17.00
2019-02-28T08:46:24.089Z,16.40
2019-02-28T08:48:52.248Z,16.70
2019-02-28T08:51:20.414Z,17.30
2019-02-28T08:53:51.365Z,18.00
2019-02-28T08:56:18.353Z,17.90
2019-02-28T08:58:46.487Z,18.50
2019-02-28T09:01:14.590Z,18.23
2019-02-28T09:03:42.750Z,18.73
2019-02-28T09:06:10.840Z,18.80
2019-02-28T09:08:38.991Z,19.57
2019-02-28T09:11:07.187Z,18.97
2019-02-28T09:13:35.298Z,19.93
2019-02-28T09:16:04.937Z,19.10
2019-02-28T09:18:33.328Z,20.57
2019-02-28T09:21:01.480Z,19.63
2019-02-28T09:23:29.644Z,20.73
2019-02-28T09:25:57.778Z,21.27
2019-02-28T09:28:25.905Z,21.40
2019-02-28T09:30:54.865Z,22.57
2019-02-28T09:33:23.951Z,22.07
2019-02-28T09:35:52.197Z,22.30
2019-02-28T09:38:20.311Z,22.30
2019-02-28T09:40:48.420Z,21.93
2019-02-28T09:43:16.576Z,22.53
2019-02-28T09:45:44.757Z,22.87
2019-02-28T09:48:12.891Z,23.40
2019-02-28T09:50:41.000Z,22.10
2019-02-28T09:53:09.189Z,21.73
2019-02-28T09:55:37.345Z,20.27
2019-02-28T09:58:05.504Z,22.13
2019-02-28T10:00:33.837Z,20.50
2019-02-28T10:03:01.969Z,20.60
2019-02-28T10:05:30.073Z,21.30
2019-02-28T10:08:01.750Z,20.33
2019-02-28T10:10:29.207Z,21.37
2019-02-28T10:12:57.343Z,21.80
2019-02-28T10:15:25.525Z,20.40
2019-02-28T10:17:53.665Z,21.30
2019-02-28T10:20:26.838Z,21.67
2019-02-28T10:22:53.164Z,21.17
2019-02-28T10:25:21.277Z,20.73
2019-02-28T10:27:49.394Z,21.50
2019-02-28T10:30:30.552Z,22.40
2019-02-28T10:32:49.025Z,21.77
2019-02-28T10:35:18.480Z,20.80
2019-02-28T10:37:47.308Z,20.90
2019-02-28T10:40:19.916Z,21.83
2019-02-28T10:42:49.484Z,17.57
2019-02-28T10:45:18.004Z,20.37
2019-02-28T10:47:46.147Z,20.90
2019-02-28T10:50:21.238Z,20.77
2019-02-28T10:52:49.367Z,20.43
2019-02-28T10:55:19.429Z,19.80
2019-02-28T10:57:47.894Z,18.83
2019-02-28T11:00:29.328Z,20.53
2019-02-28T11:02:58.310Z,19.90
2019-02-28T11:05:33.680Z,20.50
2019-02-28T11:08:02.382Z,20.40
2019-02-28T11:10:35.035Z,21.03
2019-02-28T11:13:01.496Z,21.27
2019-02-28T11:15:30.056Z,19.97
2019-02-28T11:17:58.336Z,20.77
2019-02-28T11:20:27.125Z,20.10
2019-02-28T11:22:55.470Z,21.07
2019-02-28T11:25:25.366Z,19.70
2019-02-28T11:27:54.569Z,21.33
2019-02-28T11:30:26.881Z,20.57
2019-02-28T11:32:55.111Z,21.27
2019-02-28T11:35:23.969Z,21.40
2019-02-28T11:37:52.211Z,20.97
2019-02-28T11:40:24.900Z,21.50
2019-02-28T11:42:53.064Z,19.30
2019-02-28T11:45:25.334Z,20.90
2019-02-28T11:47:52.943Z,21.47
2019-02-28T11:50:21.068Z,21.67
2019-02-28T11:52:49.148Z,21.07
2019-02-28T11:55:20.384Z,22.00
2019-02-28T11:57:47.180Z,21.80
2019-02-28T12:00:17.499Z,21.53
2019-02-28T12:02:53.072Z,21.13
2019-02-28T12:05:15.629Z,21.07
2019-02-28T12:07:44.759Z,21.40
2019-02-28T12:10:12.969Z,20.83
2019-02-28T12:12:41.623Z,21.43
2019-02-28T12:15:12.255Z,21.17
2019-02-28T12:17:40.356Z,21.13
2019-02-28T12:20:09.778Z,20.97
2019-02-28T12:22:37.886Z,21.33
2019-02-28T12:25:08.428Z,20.77
2019-02-28T12:27:36.687Z,20.33
2019-02-28T12:30:06.339Z,20.53
2019-02-28T12:32:34.525Z,20.57
2019-02-28T12:35:02.708Z,20.90
2019-02-28T12:37:30.889Z,21.00
2019-02-28T12:40:00.392Z,21.43
2019-02-28T12:42:28.589Z,20.73
2019-02-28T12:44:56.729Z,22.17
2019-02-28T12:47:26.472Z,21.73
2019-02-28T12:49:57.269Z,21.37
2019-02-28T12:52:24.441Z,20.50
2019-02-28T12:54:52.547Z,22.10
2019-02-28T12:57:22.396Z,21.10
2019-02-28T12:59:50.521Z,20.83
2019-02-28T13:02:18.636Z,21.67
2019-02-28T13:04:46.809Z,21.93
2019-02-28T13:07:14.960Z,21.30
2019-02-28T13:09:43.161Z,21.47
2019-02-28T13:12:12.104Z,21.93
2019-02-28T13:14:41.724Z,21.30
2019-02-28T13:17:10.077Z,21.33
2019-02-28T13:19:38.275Z,18.87
2019-02-28T13:22:06.562Z,22.20
2019-02-28T13:24:34.683Z,21.17
2019-02-28T13:27:05.856Z,13.80
2019-02-28T13:29:33.860Z,22.33
2019-02-28T13:32:02.583Z,19.27
2019-02-28T13:34:30.848Z,21.10
2019-02-28T13:37:02.906Z,19.73
2019-02-28T13:39:31.685Z,20.93
2019-02-28T13:42:02.645Z,21.97
2019-02-28T13:44:31.671Z,11.93
2019-02-28T13:46:58.406Z,14.43
2019-02-28T13:49:26.493Z,21.57
2019-02-28T13:51:54.598Z,19.97
2019-02-28T13:54:22.705Z,19.40
2019-02-28T13:56:50.830Z,20.73
2019-02-28T13:59:18.954Z,21.47
2019-02-28T14:01:47.083Z,21.07
2019-02-28T14:04:15.214Z,21.13
2019-02-28T14:06:43.425Z,21.47
2019-02-28T14:09:11.553Z,20.73
2019-02-28T14:11:41.827Z,18.90
2019-02-28T14:14:09.540Z,18.10
2019-02-28T14:16:37.655Z,15.87
2019-02-28T14:19:05.826Z,18.07
2019-02-28T14:21:34.438Z,17.07
2019-02-28T14:24:03.839Z,17.87
2019-02-28T14:26:32.016Z,17.97
2019-02-28T14:29:00.153Z,15.47
2019-02-28T14:31:29.600Z,16.87
2019-02-28T14:33:58.092Z,16.13
2019-02-28T14:36:26.286Z,16.60
2019-02-28T14:38:54.472Z,15.27
2019-02-28T14:41:24.723Z,13.57
2019-02-28T14:43:52.835Z,17.47
2019-02-28T14:46:22.269Z,18.40
2019-02-28T14:48:50.414Z,17.97
2019-02-28T14:51:18.554Z,16.97
2019-02-28T14:53:49.285Z,16.67
2019-02-28T14:56:16.534Z,14.03
2019-02-28T14:58:44.659Z,15.63
2019-02-28T15:01:16.812Z,14.10
2019-02-28T15:03:42.674Z,16.37
2019-02-28T15:06:10.840Z,11.37
2019-02-28T15:08:38.966Z,17.57
2019-02-28T15:11:10.066Z,11.13
2019-02-28T15:13:36.915Z,17.03
2019-02-28T15:16:05.017Z,17.57
2019-02-28T15:18:33.264Z,12.83
2019-02-28T15:21:01.389Z,16.43
2019-02-28T15:23:30.790Z,18.97
2019-02-28T15:25:59.414Z,20.77
2019-02-28T15:28:27.573Z,21.77
2019-02-28T15:30:55.685Z,19.47
2019-02-28T15:33:23.827Z,11.67
2019-02-28T15:35:51.943Z,22.87
2019-02-28T15:38:20.072Z,23.90
2019-02-28T15:40:48.191Z,18.93
2019-02-28T15:43:18.226Z,16.77
2019-02-28T15:45:48.706Z,17.77
2019-02-28T15:48:16.906Z,13.17
2019-02-28T15:50:45.018Z,16.40
2019-02-28T15:53:15.188Z,17.83
2019-02-28T15:55:43.111Z,13.17
2019-02-28T15:58:11.284Z,18.10
2019-02-28T16:00:39.380Z,15.20
2019-02-28T16:03:07.529Z,11.70
2019-02-28T16:05:42.455Z,11.80
2019-02-28T16:08:09.387Z,7.90
2019-02-28T16:10:35.326Z,13.37
2019-02-28T16:13:04.849Z,11.87
2019-02-28T16:15:32.967Z,9.93
2019-02-28T16:18:01.104Z,8.53
2019-02-28T16:20:31.881Z,6.60
2019-02-28T16:22:59.208Z,6.40
2019-02-28T16:25:31.128Z,6.73
2019-02-28T16:27:59.296Z,4.43
2019-02-28T16:30:28.761Z,5.03
2019-02-28T16:32:57.317Z,7.83
2019-02-28T16:35:25.488Z,5.07
2019-02-28T16:37:53.561Z,8.40
2019-02-28T16:40:26.280Z,9.00
2019-02-28T16:42:52.570Z,8.40
2019-02-28T16:45:41.949Z,9.13
2019-02-28T16:48:10.216Z,8.37
2019-02-28T16:50:38.381Z,9.43
2019-02-28T16:53:06.454Z,5.80
2019-02-28T16:55:34.523Z,6.07
2019-02-28T16:58:02.598Z,8.87
2019-02-28T17:00:30.952Z,8.80
2019-02-28T17:02:59.045Z,8.70
2019-02-28T17:05:28.372Z,8.30
2019-02-28T17:07:56.701Z,8.60
2019-02-28T17:10:26.514Z,7.13
2019-02-28T17:13:03.207Z,8.50
2019-02-28T17:15:50.523Z,8.77
2019-02-28T17:18:37.918Z,7.73
2019-02-28T17:21:06.010Z,7.63
2019-02-28T17:23:36.897Z,9.37
2019-02-28T17:26:03.898Z,8.30
2019-02-28T17:28:46.557Z,8.63
2019-02-28T17:31:22.775Z,8.23
2019-02-28T17:33:50.925Z,8.87
2019-02-28T17:36:20.449Z,8.63
2019-02-28T17:38:48.788Z,6.83
2019-02-28T17:41:16.864Z,8.67
2019-02-28T17:43:46.497Z,8.50
2019-02-28T17:46:15.466Z,8.67
2019-02-28T17:48:53.947Z,9.77
2019-02-28T17:51:26.527Z,10.47
2019-02-28T17:54:11.096Z,10.40
2019-02-28T17:56:47.001Z,9.20
2019-02-28T17:59:19.497Z,10.43
2019-02-28T18:02:06.215Z,9.83
2019-02-28T18:04:48.149Z,10.43
2019-02-28T18:07:20.013Z,11.33
2019-02-28T18:09:58.084Z,10.93
2019-02-28T18:12:27.798Z,10.83
2019-02-28T18:15:05.550Z,11.67
2019-02-28T18:17:53.038Z,11.40
2019-02-28T18:20:22.658Z,11.67
2019-02-28T18:22:54.018Z,11.60
2019-02-28T18:25:26.348Z,10.40
2019-02-28T18:27:59.099Z,10.83
2019-02-28T18:30:46.312Z,10.93
2019-02-28T18:33:13.816Z,11.47
2019-02-28T18:35:41.919Z,11.70
2019-02-28T18:38:10.004Z,11.37
2019-02-28T18:40:38.087Z,10.77
2019-02-28T18:43:06.183Z,10.57
2019-02-28T18:45:34.252Z,10.87
2019-02-28T18:48:02.346Z,11.40
2019-02-28T18:50:30.445Z,10.93
2019-02-28T18:52:58.540Z,10.60
2019-02-28T18:55:34.702Z,10.07
2019-02-28T18:57:56.437Z,10.60
2019-02-28T19:00:24.547Z,10.13
2019-02-28T19:02:53.520Z,10.80
2019-02-28T19:05:21.622Z,10.43
2019-02-28T19:07:49.720Z,11.00
2019-02-28T19:10:18.778Z,9.83
2019-02-28T19:12:47.130Z,11.03
2019-02-28T19:15:15.370Z,9.67
2019-02-28T19:17:43.479Z,10.03
2019-02-28T19:20:11.628Z,10.37
2019-02-28T19:22:39.736Z,10.17
2019-02-28T19:25:09.365Z,9.93
2019-02-28T19:27:37.467Z,15.83
2019-02-28T19:30:07.081Z,8.57
2019-02-28T19:32:35.174Z,10.97
2019-02-28T19:35:03.281Z,8.63
2019-02-28T19:37:31.381Z,9.17
2019-02-28T19:39:59.466Z,8.90
2019-02-28T19:42:27.564Z,9.40
2019-02-28T19:44:55.651Z,8.53
2019-02-28T19:47:23.750Z,6.93
2019-02-28T19:49:51.840Z,7.53
2019-02-28T19:52:20.011Z,6.40
2019-02-28T19:54:48.123Z,7.23
2019-02-28T19:57:16.201Z,6.27
2019-02-28T19:59:44.281Z,6.33
2019-02-28T20:02:12.368Z,7.50
2019-02-28T20:04:40.467Z,6.00
2019-02-28T20:07:08.531Z,6.47
2019-02-28T20:09:36.626Z,6.27
2019-02-28T20:12:04.708Z,6.20
2019-02-28T20:14:32.801Z,5.87
2019-02-28T20:17:00.952Z,6.17
2019-02-28T20:19:29.047Z,6.13
2019-02-28T20:21:57.220Z,6.00
2019-02-28T20:24:25.312Z,5.47
2019-02-28T20:26:53.387Z,5.30
2019-02-28T20:29:21.483Z,6.03
2019-02-28T20:31:49.565Z,5.40
2019-02-28T20:34:17.729Z,5.60
2019-02-28T20:36:48.678Z,5.33
2019-02-28T20:39:16.779Z,5.37
2019-02-28T20:41:44.875Z,5.70
2019-02-28T20:44:12.965Z,5.70
2019-02-28T20:46:41.132Z,5.50
2019-02-28T20:49:09.193Z,4.70
2019-02-28T20:51:37.286Z,5.10
2019-02-28T20:54:05.385Z,5.53
2019-02-28T20:56:33.492Z,5.33
2019-02-28T20:59:01.607Z,5.07
2019-02-28T21:01:29.705Z,4.93
2019-02-28T21:03:57.772Z,4.80
2019-02-28T21:06:25.860Z,5.00
2019-02-28T21:08:54.165Z,4.97
2019-02-28T21:11:22.297Z,5.07
2019-02-28T21:13:50.426Z,5.60
2019-02-28T21:16:18.515Z,5.20
2019-02-28T21:18:46.583Z,5.80
2019-02-28T21:21:14.787Z,5.17
2019-02-28T21:23:42.923Z,5.57
2019-02-28T21:26:10.992Z,4.90
2019-02-28T21:28:39.135Z,5.13
2019-02-28T21:31:08.791Z,5.33
2019-02-28T21:33:36.939Z,5.57
2019-02-28T21:36:05.165Z,5.60
2019-02-28T21:38:33.270Z,5.03
2019-02-28T21:41:01.379Z,5.60
2019-02-28T21:43:29.451Z,5.27
2019-02-28T21:45:57.558Z,6.00
2019-02-28T21:48:25.654Z,6.13
2019-02-28T21:50:53.851Z,6.70
2019-02-28T21:53:21.920Z,6.13
2019-02-28T21:55:50.000Z,6.40
2019-02-28T21:58:19.807Z,6.07
2019-02-28T22:00:47.881Z,5.77
2019-02-28T22:03:15.959Z,5.57
2019-02-28T22:05:44.047Z,5.53
2019-02-28T22:08:12.143Z,6.13
2019-02-28T22:10:40.234Z,5.33
2019-02-28T22:13:08.330Z,6.50
2019-02-28T22:15:36.424Z,5.80
2019-02-28T22:18:04.559Z,5.90
2019-02-28T22:20:32.639Z,6.17
2019-02-28T22:23:00.955Z,6.20
2019-02-28T22:25:29.104Z,5.40
2019-02-28T22:27:57.175Z,5.40
2019-02-28T22:30:39.613Z,5.17
2019-02-28T22:33:11.963Z,4.90
2019-02-28T22:35:41.663Z,5.20
2019-02-28T22:38:09.747Z,5.03
2019-02-28T22:40:37.812Z,5.33
2019-02-28T22:43:05.900Z,5.03
2019-02-28T22:45:33.976Z,4.53
2019-02-28T22:48:02.071Z,4.87
2019-02-28T22:50:30.139Z,4.83
2019-02-28T22:52:58.219Z,4.67
2019-02-28T22:55:26.311Z,4.77
2019-02-28T22:57:54.444Z,4.50
2019-02-28T23:00:34.442Z,4.83
2019-02-28T23:03:02.615Z,4.60
2019-02-28T23:05:30.698Z,4.30
2019-02-28T23:07:58.777Z,3.80
2019-02-28T23:10:26.882Z,4.20
2019-02-28T23:12:54.953Z,4.13
2019-02-28T23:15:23.065Z,4.17
2019-02-28T23:17:51.185Z,4.53
2019-02-28T23:20:19.361Z,3.90
2019-02-28T23:22:47.464Z,3.83
2019-02-28T23:25:15.603Z,3.63
2019-02-28T23:27:43.676Z,3.70
2019-02-28T23:30:13.336Z,4.30
2019-02-28T23:32:42.976Z,3.90
2019-02-28T23:35:12.640Z,4.07
2019-02-28T23:37:40.747Z,3.87
2019-02-28T23:40:08.843Z,4.07
2019-02-28T23:42:37.010Z,3.93
2019-02-28T23:45:06.187Z,4.57
2019-02-28T23:47:34.278Z,3.57
2019-02-28T23:50:02.498Z,3.73
2019-02-28T23:52:30.593Z,3.50
2019-02-28T23:54:58.699Z,4.03
2019-02-28T23:57:28.355Z,3.93
2019-02-28T23:59:56.481Z,3.60
